Time;durP1;ratioP1;P1;durP2;ratioP2;P2;SDS_P1;SDS_P2;PMS_P1;PMS_P2;Temp;Humidity;BMP_temperature;BMP_pressure;BME280_temperature;BME280_humidity;BME280_pressure;Samples;Min_cycle;Max_cycle;Signal;HPM_P1;HPM_P2
2023/12/11 00:01:48;;;;;;;0.80;0.30;;;;;;;9.71;100.00;148578.22;5023318;28;20693;-62
2023/12/11 00:04:15;;;;;;;1.10;0.60;;;;;;;9.68;100.00;148569.47;5015281;28;20325;-63
2023/12/11 00:06:42;;;;;;;3.90;0.50;;;;;;;9.68;100.00;148569.47;5025973;28;20638;-63
2023/12/11 00:09:10;;;;;;;0.37;0.27;;;;;;;9.67;100.00;148566.97;5022361;28;20237;-63
2023/12/11 00:11:37;;;;;;;2.67;0.40;;;;;;;9.66;100.00;148564.50;5025957;28;20244;-63
2023/12/11 00:14:04;;;;;;;0.73;0.30;;;;;;;9.68;100.00;148569.47;5023467;28;20238;-62
2023/12/11 00:16:30;;;;;;;0.87;0.30;;;;;;;9.63;100.00;148557.03;5025688;28;20567;-60
2023/12/11 00:18:58;;;;;;;2.07;0.40;;;;;;;9.55;100.00;148539.59;5005397;28;20313;-60
2023/12/11 00:21:24;;;;;;;1.73;0.30;;;;;;;9.49;100.00;148524.69;5025981;28;20293;-60
2023/12/11 00:23:51;;;;;;;1.77;0.50;;;;;;;9.50;100.00;148527.19;5022115;28;20804;-60
2023/12/11 00:26:19;;;;;;;3.00;0.40;;;;;;;9.50;100.00;148525.94;5026138;28;20621;-60
2023/12/11 00:28:48;;;;;;;2.67;0.50;;;;;;;9.51;100.00;148528.41;5022757;28;20230;-61
2023/12/11 00:31:14;;;;;;;0.63;0.30;;;;;;;9.48;100.00;148522.22;5025945;28;20246;-60
2023/12/11 00:33:41;;;;;;;1.47;0.30;;;;;;;9.51;100.00;148528.41;5024316;28;20225;-60
2023/12/11 00:36:09;;;;;;;3.77;0.70;;;;;;;9.53;100.00;148533.41;5023369;28;20230;-61
2023/12/11 00:38:35;;;;;;;0.40;0.30;;;;;;;9.46;100.00;148517.22;5025178;28;20741;-60
2023/12/11 00:41:02;;;;;;;1.87;0.30;;;;;;;9.47;100.00;148519.72;5022930;28;20696;-60
2023/12/11 00:43:30;;;;;;;0.63;0.40;;;;;;;9.46;100.00;148517.22;5025218;28;20224;-60
2023/12/11 00:45:57;;;;;;;0.50;0.20;;;;;;;9.53;100.00;148533.41;5021932;28;20227;-60
2023/12/11 00:48:23;;;;;;;0.60;0.30;;;;;;;9.53;100.00;148534.66;5015017;28;20230;-61
2023/12/11 00:50:50;;;;;;;0.77;0.40;;;;;;;9.43;100.00;148511.00;5020049;28;20225;-60
2023/12/11 00:53:17;;;;;;;2.07;0.40;;;;;;;9.41;100.00;148504.78;5025756;28;20239;-60
2023/12/11 00:55:44;;;;;;;1.13;0.30;;;;;;;9.42;100.00;148507.28;5025686;28;20238;-60
2023/12/11 00:58:10;;;;;;;0.40;0.40;;;;;;;9.52;100.00;148532.19;5023483;28;20236;-61
2023/12/11 01:00:38;;;;;;;1.30;0.20;;;;;;;9.51;100.00;148529.69;5007734;28;20313;-61
2023/12/11 01:03:05;;;;;;;1.43;0.33;;;;;;;9.43;100.00;148509.78;5022820;28;20332;-61
2023/12/11 01:05:32;;;;;;;0.40;0.20;;;;;;;9.42;100.00;148508.50;5025531;28;20229;-60
2023/12/11 01:07:58;;;;;;;1.23;0.20;;;;;;;9.39;100.00;148499.81;5022914;28;20564;-61
2023/12/11 01:10:25;;;;;;;0.40;0.20;;;;;;;9.44;100.00;148512.25;5005691;28;20230;-61
2023/12/11 01:12:52;;;;;;;2.33;0.30;;;;;;;9.44;100.00;148512.25;5021137;28;20752;-61
2023/12/11 01:15:18;;;;;;;0.60;0.20;;;;;;;9.46;100.00;148517.22;5025328;28;20305;-61
2023/12/11 01:17:47;;;;;;;1.23;0.30;;;;;;;9.49;100.00;148523.44;5022503;28;20319;-61
2023/12/11 01:20:14;;;;;;;0.63;0.10;;;;;;;9.57;100.00;148544.56;5025408;28;20237;-61
2023/12/11 01:22:41;;;;;;;0.50;0.20;;;;;;;9.60;100.00;148552.03;5024696;28;20245;-61
2023/12/11 01:25:08;;;;;;;0.30;0.20;;;;;;;9.69;100.00;148571.97;5022321;28;20297;-61
2023/12/11 01:27:35;;;;;;;0.93;0.20;;;;;;;9.78;100.00;148594.38;5025065;28;21025;-61
2023/12/11 01:30:02;;;;;;;0.10;0.03;;;;;;;9.90;100.00;148624.25;5022067;28;20317;-60
2023/12/11 01:32:30;;;;;;;0.20;0.10;;;;;;;9.95;100.00;148634.22;5024608;28;20237;-60
2023/12/11 01:34:58;;;;;;;0.33;0.20;;;;;;;9.89;100.00;148620.53;5022034;28;20753;-61
2023/12/11 01:37:24;;;;;;;0.53;0.20;;;;;;;9.81;100.00;148601.84;5007012;28;20239;-61
2023/12/11 01:39:51;;;;;;;0.43;0.10;;;;;;;9.93;100.00;148630.50;5021310;28;20374;-60
2023/12/11 01:42:18;;;;;;;0.30;0.13;;;;;;;9.92;100.00;148628.00;5023433;28;20230;-60
2023/12/11 01:44:45;;;;;;;0.97;0.20;;;;;;;9.84;100.00;148608.09;5005893;28;20235;-61
2023/12/11 01:47:11;;;;;;;0.10;0.10;;;;;;;9.81;100.00;148601.84;4946090;28;20295;-61
2023/12/11 01:49:39;;;;;;;0.10;0.10;;;;;;;9.81;100.00;148601.84;4924907;28;20275;-61
2023/12/11 01:52:09;;;;;;;0.57;0.13;;;;;;;9.84;100.00;148608.09;4965568;28;20665;-60
2023/12/11 01:55:02;;;;;;;0.53;0.20;;;;;;;9.84;100.00;148609.31;4985946;28;20708;-61
2023/12/11 01:57:31;;;;;;;2.20;0.30;;;;;;;9.81;100.00;148600.63;4941166;28;20230;-60
2023/12/11 01:59:58;;;;;;;0.47;0.10;;;;;;;9.86;100.00;148613.06;4875156;28;20714;-61
2023/12/11 02:02:25;;;;;;;0.63;0.30;;;;;;;9.82;100.00;148604.31;5006290;28;20238;-60
2023/12/11 02:04:54;;;;;;;0.57;0.30;;;;;;;9.86;100.00;148614.28;5009054;28;20228;-61
2023/12/11 02:07:22;;;;;;;1.40;0.10;;;;;;;9.76;100.00;148589.38;4999449;28;20236;-61
2023/12/11 02:09:48;;;;;;;0.10;0.07;;;;;;;9.62;100.00;148555.81;5020827;28;20250;-61
2023/12/11 02:12:15;;;;;;;0.43;0.10;;;;;;;9.61;100.00;148553.31;5023278;28;20316;-60
2023/12/11 02:14:42;;;;;;;0.30;0.10;;;;;;;9.51;100.00;148528.41;5022657;28;20236;-61
2023/12/11 02:17:09;;;;;;;0.17;0.10;;;;;;;9.45;100.00;148514.75;5021370;28;20251;-61
2023/12/11 02:19:36;;;;;;;2.50;0.10;;;;;;;9.45;100.00;148515.97;5024261;28;20761;-60
2023/12/11 02:22:03;;;;;;;0.53;0.17;;;;;;;9.45;100.00;148515.97;5021400;28;20229;-60
2023/12/11 02:24:33;;;;;;;0.20;0.10;;;;;;;9.47;100.00;148519.72;5023397;28;20323;-60
2023/12/11 02:27:02;;;;;;;0.30;0.20;;;;;;;9.44;100.00;148512.25;5019131;28;20232;-60
2023/12/11 02:29:28;;;;;;;0.33;0.10;;;;;;;9.48;100.00;148522.22;5021471;28;20237;-60
2023/12/11 02:31:55;;;;;;;0.57;0.33;;;;;;;9.48;100.00;148520.94;5021255;28;20786;-60
2023/12/11 02:34:22;;;;;;;0.20;0.10;;;;;;;9.52;100.00;148530.91;5013206;28;20329;-61
2023/12/11 02:36:49;;;;;;;0.80;0.20;;;;;;;9.59;100.00;148549.56;5020857;28;20254;-58
2023/12/11 02:39:18;;;;;;;1.60;0.20;;;;;;;9.78;100.00;148594.38;5022957;28;20240;-59
2023/12/11 02:41:45;;;;;;;0.30;0.10;;;;;;;9.85;100.00;148610.56;5020452;28;20237;-59
2023/12/11 02:44:13;;;;;;;0.50;0.20;;;;;;;9.84;100.00;148609.31;5022437;28;20677;-58
2023/12/11 02:46:40;;;;;;;0.63;0.30;;;;;;;9.92;100.00;148628.00;5022788;28;20612;-59
2023/12/11 02:49:07;;;;;;;0.50;0.20;;;;;;;9.98;100.00;148641.69;5020446;28;20229;-58
2023/12/11 02:51:33;;;;;;;2.53;0.30;;;;;;;9.97;100.00;148640.44;5021360;28;20310;-59
2023/12/11 02:54:00;;;;;;;1.57;0.30;;;;;;;10.03;100.00;148654.13;5019712;28;20232;-59
2023/12/11 02:56:27;;;;;;;1.47;0.27;;;;;;;10.17;100.00;148687.72;5023945;28;20804;-59
2023/12/11 02:58:54;;;;;;;0.20;0.10;;;;;;;10.14;100.00;148680.25;5020488;28;20249;-58
2023/12/11 03:01:22;;;;;;;1.13;0.20;;;;;;;10.16;100.00;148685.22;5022314;28;20226;-59
2023/12/11 03:03:48;;;;;;;0.30;0.20;;;;;;;10.15;100.00;148682.75;5016462;28;20218;-58
2023/12/11 03:06:19;;;;;;;0.20;0.20;;;;;;;10.16;100.00;148686.50;5021968;28;20222;-60
2023/12/11 03:08:47;;;;;;;0.17;0.10;;;;;;;10.24;100.00;148705.16;5022129;28;20566;-59
2023/12/11 03:11:14;;;;;;;0.30;0.20;;;;;;;10.38;100.00;148738.81;5026773;28;20244;-59
2023/12/11 03:13:41;;;;;;;0.33;0.20;;;;;;;10.30;100.00;148720.09;5026914;28;20320;-59
2023/12/11 03:16:12;;;;;;;0.30;0.20;;;;;;;10.40;100.00;148742.56;5024663;28;20718;-59
2023/12/11 03:18:41;;;;;;;0.40;0.20;;;;;;;10.48;100.00;148762.50;5026985;28;20233;-59
2023/12/11 03:21:08;;;;;;;0.33;0.20;;;;;;;10.55;100.00;148778.72;5014916;28;20234;-59
2023/12/11 03:23:34;;;;;;;0.73;0.10;;;;;;;10.64;100.00;148801.09;5026809;28;21165;-59
2023/12/11 03:26:01;;;;;;;0.70;0.33;;;;;;;10.62;100.00;148797.38;5024612;28;20226;-59
2023/12/11 03:28:28;;;;;;;0.57;0.20;;;;;;;10.60;100.00;148791.16;5026892;28;20649;-59
2023/12/11 03:30:55;;;;;;;0.23;0.10;;;;;;;10.66;100.00;148804.84;5024258;28;20300;-59
2023/12/11 03:33:21;;;;;;;0.20;0.10;;;;;;;10.55;100.00;148778.72;5026265;28;20253;-59
2023/12/11 03:35:49;;;;;;;2.13;0.20;;;;;;;10.61;100.00;148794.88;5024676;28;20333;-59
2023/12/11 03:38:16;;;;;;;0.50;0.23;;;;;;;10.58;100.00;148786.19;5026262;28;20260;-59
2023/12/11 03:40:43;;;;;;;0.40;0.10;;;;;;;10.61;100.00;148794.88;5025471;28;20257;-59
2023/12/11 03:43:10;;;;;;;0.80;0.20;;;;;;;10.61;100.00;148794.88;5024801;28;20237;-59
2023/12/11 03:45:37;;;;;;;0.10;0.10;;;;;;;10.58;100.00;148786.19;5027269;28;20248;-59
2023/12/11 03:48:04;;;;;;;1.33;0.30;;;;;;;10.51;100.00;148769.97;5023362;28;20221;-58
2023/12/11 03:50:31;;;;;;;0.60;0.23;;;;;;;10.40;100.00;148743.84;5025884;28;20657;-59
2023/12/11 03:52:59;;;;;;;1.33;0.33;;;;;;;10.27;100.00;148711.41;5023414;28;20313;-59
2023/12/11 03:55:26;;;;;;;1.13;0.30;;;;;;;10.17;100.00;148687.72;5026394;28;20231;-60
2023/12/11 03:57:53;;;;;;;0.30;0.20;;;;;;;10.15;100.00;148684.00;5023820;28;20317;-59
2023/12/11 04:00:19;;;;;;;1.90;0.30;;;;;;;10.07;100.00;148662.88;5026240;28;20237;-59
2023/12/11 04:05:28;;;;;;;1.47;1.03;;;;;;;9.98;100.00;148641.69;5025583;23;20312;-57
2023/12/11 04:07:54;;;;;;;0.70;0.30;;;;;;;10.06;100.00;148660.38;5002724;28;20227;-54
2023/12/11 04:10:22;;;;;;;1.07;0.20;;;;;;;10.05;100.00;148659.09;5007288;28;20315;-57
2023/12/11 04:12:49;;;;;;;0.53;0.10;;;;;;;10.13;100.00;148679.03;5002844;28;20262;-56
2023/12/11 04:15:16;;;;;;;1.53;0.20;;;;;;;10.01;100.00;148649.16;5006412;28;20322;-59
2023/12/11 04:17:43;;;;;;;0.83;0.30;;;;;;;10.11;100.00;148674.03;5006333;28;20227;-58
2023/12/11 04:20:11;;;;;;;0.57;0.30;;;;;;;10.19;100.00;148692.69;5002771;28;20233;-56
2023/12/11 04:22:37;;;;;;;1.13;0.40;;;;;;;10.29;100.00;148717.59;5003796;28;20226;-57
2023/12/11 04:25:05;;;;;;;0.70;0.27;;;;;;;10.21;100.00;148697.69;5002803;28;20250;-59
2023/12/11 04:27:33;;;;;;;1.10;0.27;;;;;;;10.14;100.00;148680.25;5005074;28;20288;-58
2023/12/11 04:29:59;;;;;;;1.53;0.20;;;;;;;10.08;100.00;148665.31;5003525;28;20657;-58
2023/12/11 04:32:27;;;;;;;1.77;0.50;;;;;;;10.13;100.00;148677.75;5231658;22;20303;-58
2023/12/11 04:34:53;;;;;;;2.40;0.30;;;;;;;10.07;100.00;148664.09;5001221;28;20231;-58
2023/12/11 04:37:20;;;;;;;2.40;0.30;;;;;;;10.01;100.00;148649.16;5006516;28;20349;-58
2023/12/11 04:39:47;;;;;;;1.67;0.30;;;;;;;9.89;100.00;148620.53;5003232;28;20219;-58
2023/12/11 04:42:13;;;;;;;0.70;0.23;;;;;;;9.92;100.00;148628.00;5005903;28;20317;-58
2023/12/11 04:44:41;;;;;;;0.93;0.30;;;;;;;10.12;100.00;148676.53;5006226;28;20328;-58
2023/12/11 04:47:08;;;;;;;2.63;0.30;;;;;;;10.13;100.00;148677.75;5003589;28;20321;-58
2023/12/11 04:49:35;;;;;;;1.13;0.20;;;;;;;10.12;100.00;148676.53;5006359;28;21139;-58
2023/12/11 04:52:02;;;;;;;0.83;0.33;;;;;;;10.16;100.00;148686.50;5002734;28;20226;-58
2023/12/11 04:54:28;;;;;;;0.60;0.47;;;;;;;10.25;100.00;148706.44;5004890;28;20235;-56
2023/12/11 04:56:55;;;;;;;1.33;0.30;;;;;;;10.22;100.00;148698.94;5003653;28;20237;-57
2023/12/11 04:59:22;;;;;;;0.50;0.30;;;;;;;10.21;100.00;148696.47;5004682;28;20306;-58
2023/12/11 05:01:50;;;;;;;0.97;0.40;;;;;;;10.16;100.00;148685.22;5002684;28;20709;-59
2023/12/11 05:04:17;;;;;;;1.50;0.30;;;;;;;10.14;100.00;148681.53;5005725;28;20241;-58
2023/12/11 05:06:44;;;;;;;3.13;0.30;;;;;;;10.22;100.00;148698.94;5005935;28;20229;-58
2023/12/11 05:09:11;;;;;;;3.77;2.50;;;;;;;10.21;100.00;148696.47;5003045;28;20228;-58
2023/12/11 05:11:38;;;;;;;0.77;0.40;;;;;;;10.22;100.00;148698.94;5005787;28;20783;-58
2023/12/11 05:14:05;;;;;;;0.80;0.30;;;;;;;10.20;100.00;148695.19;5003219;28;20237;-57
2023/12/11 05:16:31;;;;;;;1.20;0.63;;;;;;;10.15;100.00;148684.00;5005653;28;20594;-59
2023/12/11 05:18:59;;;;;;;8.43;6.13;;;;;;;10.06;100.00;148661.59;5002479;28;20220;-58
2023/12/11 05:21:26;;;;;;;3.33;1.17;;;;;;;10.01;100.00;148650.41;5005678;28;20224;-58
2023/12/11 05:23:53;;;;;;;2.37;0.80;;;;;;;10.03;100.00;148655.41;5002697;28;20243;-59
2023/12/11 05:26:20;;;;;;;1.30;0.40;;;;;;;10.02;100.00;148651.63;5005758;28;20701;-58
2023/12/11 05:28:48;;;;;;;2.57;0.50;;;;;;;10.04;100.00;148656.63;5002516;28;20250;-59
2023/12/11 05:31:15;;;;;;;0.53;0.37;;;;;;;10.13;99.55;148679.03;5003142;28;20240;-58
2023/12/11 05:33:41;;;;;;;3.33;1.00;;;;;;;10.17;99.52;148689.00;4996254;28;20313;-58
2023/12/11 05:36:10;;;;;;;1.70;0.40;;;;;;;10.28;97.31;148713.91;5002958;28;20222;-59
2023/12/11 05:38:37;;;;;;;1.23;0.30;;;;;;;10.36;97.40;148733.81;5005440;28;20263;-59
2023/12/11 05:41:04;;;;;;;1.20;0.60;;;;;;;10.41;97.56;148745.06;5002514;28;20230;-58
2023/12/11 05:43:31;;;;;;;1.43;0.50;;;;;;;10.44;97.18;148753.78;5005329;28;20248;-58
2023/12/11 05:45:58;;;;;;;6.43;4.40;;;;;;;10.47;96.49;148760.00;5002641;28;20320;-58
2023/12/11 05:48:25;;;;;;;2.67;1.53;;;;;;;10.53;95.96;148774.94;5005381;28;20253;-58
2023/12/11 05:50:51;;;;;;;7.90;6.30;;;;;;;10.51;95.18;148768.75;5001561;28;20766;-58
2023/12/11 05:53:19;;;;;;;2.23;0.70;;;;;;;10.52;95.70;148772.47;5005146;28;20237;-58
2023/12/11 05:55:46;;;;;;;4.33;0.50;;;;;;;10.42;96.35;148748.81;5001140;28;20313;-58
2023/12/11 05:58:13;;;;;;;4.47;2.47;;;;;;;10.33;97.28;148726.34;5005148;28;20243;-58
2023/12/11 06:00:40;;;;;;;1.70;0.90;;;;;;;10.22;97.19;148700.19;5005089;28;20312;-58
2023/12/11 06:03:07;;;;;;;3.17;0.50;;;;;;;10.17;97.78;148689.00;5002484;28;20316;-58
2023/12/11 06:05:33;;;;;;;0.40;0.40;;;;;;;10.26;96.44;148710.13;5005115;28;20317;-58
2023/12/11 06:08:00;;;;;;;3.50;2.60;;;;;;;10.19;97.16;148693.97;5001742;28;20600;-58
2023/12/11 06:10:29;;;;;;;2.43;1.17;;;;;;;10.26;97.25;148710.13;5004688;28;20697;-58
2023/12/11 06:12:56;;;;;;;3.37;1.00;;;;;;;10.27;96.22;148712.63;5001803;28;20235;-58
2023/12/11 06:15:23;;;;;;;1.20;0.60;;;;;;;10.26;97.14;148708.91;5004283;28;20258;-58
2023/12/11 06:17:49;;;;;;;2.33;0.40;;;;;;;10.26;97.12;148708.91;5002366;28;20225;-58
2023/12/11 06:20:16;;;;;;;0.87;0.20;;;;;;;10.35;95.07;148731.34;5005012;28;20293;-58
2023/12/11 06:22:43;;;;;;;4.83;2.50;;;;;;;10.23;97.03;148701.44;5004823;28;20223;-58
2023/12/11 06:25:10;;;;;;;0.77;0.40;;;;;;;10.23;96.14;148701.44;5001501;28;20684;-58
2023/12/11 06:27:38;;;;;;;1.67;0.67;;;;;;;10.27;95.76;148711.41;5004743;28;20231;-58
2023/12/11 06:30:07;;;;;;;0.93;0.33;;;;;;;10.12;97.09;148676.53;4993122;28;20714;-58
2023/12/11 06:32:34;;;;;;;1.10;0.40;;;;;;;10.04;97.60;148656.63;5004484;28;20246;-58
2023/12/11 06:35:01;;;;;;;2.27;0.40;;;;;;;10.03;97.07;148654.13;4993249;28;20251;-58
2023/12/11 06:37:28;;;;;;;2.27;0.40;;;;;;;9.91;97.44;148625.50;5004058;28;20232;-58
2023/12/11 06:39:55;;;;;;;1.73;0.40;;;;;;;10.02;96.38;148652.91;5001898;28;20313;-59
2023/12/11 06:42:21;;;;;;;1.37;0.70;;;;;;;9.99;96.54;148645.44;5005230;28;20230;-59
2023/12/11 06:44:49;;;;;;;1.50;0.40;;;;;;;10.23;95.42;148701.44;5005906;28;20240;-58
2023/12/11 06:47:17;;;;;;;0.83;0.40;;;;;;;10.26;94.33;148708.91;5008911;28;20221;-58
2023/12/11 06:49:45;;;;;;;1.50;0.50;;;;;;;10.23;93.90;148701.44;5008715;28;20227;-58
2023/12/11 06:52:13;;;;;;;1.73;1.03;;;;;;;10.32;92.98;148723.84;5006020;28;20222;-59
2023/12/11 06:54:39;;;;;;;0.80;0.27;;;;;;;10.27;94.62;148711.41;5008581;28;20229;-58
2023/12/11 06:57:06;;;;;;;1.50;0.90;;;;;;;10.42;93.38;148747.53;5005686;28;20234;-58
2023/12/11 06:59:33;;;;;;;3.23;0.47;;;;;;;10.28;93.91;148713.91;5008474;28;20345;-59
2023/12/11 07:02:02;;;;;;;1.98;0.50;;;;;;;10.30;95.33;148718.88;5005418;28;20443;-58
2023/12/11 07:04:28;;;;;;;0.80;0.50;;;;;;;10.52;93.05;148771.22;5007963;28;20240;-58
2023/12/11 07:06:55;;;;;;;0.33;0.30;;;;;;;10.50;92.73;148766.25;5005330;28;20596;-58
2023/12/11 07:09:22;;;;;;;1.60;0.37;;;;;;;10.68;90.39;148811.03;5008333;28;20228;-58
2023/12/11 07:11:49;;;;;;;0.87;0.23;;;;;;;10.77;90.45;148833.47;5004797;28;20277;-58
2023/12/11 07:14:15;;;;;;;0.87;0.47;;;;;;;10.60;91.57;148792.38;5007735;28;20233;-58
2023/12/11 07:16:42;;;;;;;0.63;0.40;;;;;;;10.59;92.54;148788.69;5006834;28;20240;-58
2023/12/11 07:19:10;;;;;;;3.70;0.47;;;;;;;10.63;90.98;148798.59;5004752;28;20231;-58
2023/12/11 07:21:37;;;;;;;1.37;0.63;;;;;;;10.64;91.24;148801.09;5007469;28;20229;-59
2023/12/11 07:24:04;;;;;;;1.37;0.60;;;;;;;10.59;91.81;148789.91;5004440;28;20591;-58
2023/12/11 07:26:31;;;;;;;0.67;0.20;;;;;;;10.57;91.78;148783.69;5007851;28;20263;-57
2023/12/11 07:28:59;;;;;;;1.17;0.40;;;;;;;10.52;91.52;148772.47;5005224;28;21164;-58
2023/12/11 07:31:25;;;;;;;3.97;3.57;;;;;;;10.45;93.12;148755.03;5007781;28;20598;-58
2023/12/11 07:33:52;;;;;;;2.77;1.53;;;;;;;10.45;92.74;148755.03;4993940;28;20322;-58
2023/12/11 07:36:21;;;;;;;1.80;0.60;;;;;;;10.51;92.60;148768.75;5006912;28;20329;-58
2023/12/11 07:38:49;;;;;;;4.57;1.30;;;;;;;10.36;93.63;148732.56;5004474;28;20222;-58
2023/12/11 07:41:19;;;;;;;2.60;1.37;;;;;;;10.37;94.27;148736.31;5007586;28;20316;-58
2023/12/11 07:43:47;;;;;;;2.70;0.60;;;;;;;10.43;91.92;148750.03;5004067;28;20633;-57
2023/12/11 07:46:16;;;;;;;1.95;0.40;;;;;;;10.52;91.58;148772.47;5006874;28;20525;-58
2023/12/11 07:48:43;;;;;;;0.70;0.40;;;;;;;10.63;91.68;148798.59;5005147;28;20326;-58
2023/12/11 07:51:17;;;;;;;4.37;0.50;;;;;;;10.60;92.31;148792.38;5004914;28;20235;-58
2023/12/11 07:53:48;;;;;;;1.20;0.40;;;;;;;10.56;92.84;148782.41;5004223;28;20231;-58
2023/12/11 07:56:21;;;;;;;3.13;0.50;;;;;;;10.59;92.75;148788.69;5007238;28;20217;-58
2023/12/11 07:58:48;;;;;;;4.00;0.50;;;;;;;10.57;92.78;148783.69;5004554;28;20237;-58
2023/12/11 08:01:15;;;;;;;2.23;0.50;;;;;;;10.55;93.17;148779.94;5006718;28;20665;-57
2023/12/11 08:03:42;;;;;;;2.80;0.60;;;;;;;10.56;93.14;148782.41;5006513;28;20229;-58
2023/12/11 08:06:09;;;;;;;4.47;0.53;;;;;;;10.64;92.12;148801.09;5003853;28;20681;-59
2023/12/11 08:08:40;;;;;;;2.30;0.50;;;;;;;10.76;90.21;148830.97;5007024;28;20236;-58
2023/12/11 08:11:17;;;;;;;2.13;0.57;;;;;;;10.71;91.73;148818.53;5003555;28;20243;-58
2023/12/11 08:13:44;;;;;;;2.13;0.57;;;;;;;10.68;92.09;148811.03;5005585;28;20235;-58
2023/12/11 08:16:11;;;;;;;3.33;0.70;;;;;;;10.60;93.39;148791.16;5004467;28;20226;-58
2023/12/11 08:18:38;;;;;;;3.17;0.70;;;;;;;10.59;92.33;148788.69;4997014;28;20231;-58
2023/12/11 08:21:06;;;;;;;1.30;0.53;;;;;;;10.54;92.51;148776.22;4994728;28;23693;-56
2023/12/11 08:23:32;;;;;;;2.20;0.70;;;;;;;10.65;91.95;148803.56;5006741;28;20232;-56
2023/12/11 08:25:59;;;;;;;1.87;0.57;;;;;;;10.71;91.34;148817.31;5004127;28;20230;-56
2023/12/11 08:28:27;;;;;;;1.27;0.60;;;;;;;10.68;91.46;148809.81;5004721;28;20325;-58
2023/12/11 08:30:54;;;;;;;3.63;0.60;;;;;;;10.66;91.45;148806.06;5001017;28;20313;-58
2023/12/11 08:33:21;;;;;;;2.23;0.53;;;;;;;10.61;91.86;148794.88;5005278;28;20233;-58
2023/12/11 08:35:48;;;;;;;5.47;0.80;;;;;;;10.60;92.27;148792.38;5002671;28;20704;-58
2023/12/11 08:38:16;;;;;;;2.80;0.93;;;;;;;10.71;90.69;148817.31;5005654;28;20226;-59
2023/12/11 08:40:43;;;;;;;2.80;0.53;;;;;;;10.71;90.35;148818.53;5005986;28;20224;-58
2023/12/11 08:43:11;;;;;;;1.73;0.70;;;;;;;10.76;90.02;148830.97;5003326;28;20633;-58
2023/12/11 08:45:39;;;;;;;4.93;0.90;;;;;;;10.88;89.75;148858.38;5005648;28;20861;-57
2023/12/11 08:48:06;;;;;;;4.80;0.60;;;;;;;10.94;90.64;148873.34;5003556;28;20250;-57
2023/12/11 08:50:33;;;;;;;2.80;0.70;;;;;;;10.96;90.10;148877.09;5006394;28;20293;-57
2023/12/11 08:53:00;;;;;;;2.23;0.60;;;;;;;11.03;88.51;148894.53;5003255;28;20346;-58
2023/12/11 08:55:27;;;;;;;2.40;0.70;;;;;;;11.06;88.96;148902.00;5005547;28;20270;-58
2023/12/11 08:57:54;;;;;;;2.23;0.60;;;;;;;11.08;87.92;148908.22;5003147;28;20288;-58
2023/12/11 09:00:21;;;;;;;2.20;0.70;;;;;;;11.13;88.33;148918.19;5006376;28;20296;-58
2023/12/11 09:02:49;;;;;;;2.10;0.60;;;;;;;11.26;86.42;148950.59;5002872;28;20221;-58
2023/12/11 09:05:16;;;;;;;2.03;0.70;;;;;;;11.30;85.51;148959.28;5005565;28;20694;-58
2023/12/11 09:07:43;;;;;;;6.80;0.97;;;;;;;11.33;86.32;148966.75;5006208;28;20230;-58
2023/12/11 09:10:10;;;;;;;5.07;1.30;;;;;;;11.41;85.50;148986.69;5002881;28;20310;-58
2023/12/11 09:12:38;;;;;;;3.70;1.00;;;;;;;11.49;85.17;149005.41;5005653;28;20237;-58
2023/12/11 09:15:06;;;;;;;3.30;0.80;;;;;;;11.45;86.78;148996.66;5002526;28;20218;-58
2023/12/11 09:17:34;;;;;;;2.80;0.60;;;;;;;11.49;86.93;149005.41;5005586;28;20234;-58
2023/12/11 09:20:04;;;;;;;2.13;0.70;;;;;;;11.47;86.99;149001.66;5003153;28;20226;-58
2023/12/11 09:22:31;;;;;;;2.43;0.60;;;;;;;11.48;87.12;149002.94;5005309;28;20246;-59
2023/12/11 09:24:58;;;;;;;3.50;0.57;;;;;;;11.53;87.56;149015.38;5002936;28;20222;-58
2023/12/11 09:27:25;;;;;;;2.03;0.60;;;;;;;11.51;86.06;149010.41;5005623;28;20655;-58
2023/12/11 09:29:52;;;;;;;2.30;0.60;;;;;;;11.61;85.39;149035.34;5002988;28;20238;-58
2023/12/11 09:32:18;;;;;;;1.27;0.60;;;;;;;11.65;84.91;149045.31;5005354;28;20264;-58
2023/12/11 09:34:45;;;;;;;3.73;0.70;;;;;;;11.78;84.38;149075.16;5005160;28;20246;-58
2023/12/11 09:37:15;;;;;;;4.10;0.80;;;;;;;11.92;82.69;149108.84;5002941;28;20282;-59
2023/12/11 09:39:42;;;;;;;4.87;1.10;;;;;;;11.95;82.54;149116.34;5005013;28;20298;-57
2023/12/11 09:42:09;;;;;;;3.23;1.13;;;;;;;11.89;83.40;149101.38;5002841;28;20245;-58
2023/12/11 09:44:36;;;;;;;4.23;0.70;;;;;;;11.92;81.69;149108.84;5005234;28;20237;-58
2023/12/11 09:47:09;;;;;;;4.90;1.10;;;;;;;11.80;82.80;149080.16;5002177;28;20223;-58
2023/12/11 09:49:36;;;;;;;2.80;0.80;;;;;;;11.82;82.90;149085.16;5005066;28;20235;-58
2023/12/11 09:52:03;;;;;;;2.83;0.87;;;;;;;11.80;82.52;149080.16;5002614;28;20238;-58
2023/12/11 09:54:31;;;;;;;2.93;0.80;;;;;;;11.92;80.31;149108.84;4995019;28;20223;-58
2023/12/11 09:56:58;;;;;;;4.53;1.77;;;;;;;11.92;81.29;149110.09;5002680;28;20227;-58
2023/12/11 09:59:27;;;;;;;4.03;0.73;;;;;;;11.91;81.39;149106.34;5005337;28;20325;-58
2023/12/11 10:01:55;;;;;;;2.03;0.60;;;;;;;12.01;82.09;149130.06;5002561;28;20232;-58
2023/12/11 10:04:21;;;;;;;3.13;0.70;;;;;;;11.99;81.17;149126.31;5004761;28;20635;-58
2023/12/11 10:06:51;;;;;;;1.87;0.97;;;;;;;12.03;83.42;149135.06;5002486;28;20243;-59
2023/12/11 10:09:27;;;;;;;2.30;1.30;;;;;;;11.90;83.79;149105.09;5005259;28;20234;-58
2023/12/11 10:12:00;;;;;;;13.83;6.13;;;;;;;11.82;83.91;149085.16;5001389;28;20310;-59
2023/12/11 10:14:27;;;;;;;2.73;1.37;;;;;;;11.82;82.67;149086.41;5004599;28;20252;-57
2023/12/11 10:16:54;;;;;;;3.03;0.90;;;;;;;11.73;84.67;149062.72;5002297;28;20222;-58
2023/12/11 10:19:30;;;;;;;2.40;0.70;;;;;;;11.72;82.12;149061.47;5008758;28;20222;-57
2023/12/11 10:21:57;;;;;;;4.90;0.80;;;;;;;11.75;82.79;149068.97;5006326;28;20279;-58
2023/12/11 10:24:24;;;;;;;2.40;0.90;;;;;;;11.69;83.43;149052.75;5008741;28;20312;-58
2023/12/11 10:26:56;;;;;;;4.30;1.73;;;;;;;11.64;83.66;149041.53;5004430;28;20236;-58
2023/12/11 10:29:25;;;;;;;2.73;0.73;;;;;;;11.65;81.33;149045.31;5008292;28;20223;-59
2023/12/11 10:31:53;;;;;;;7.40;0.80;;;;;;;11.70;80.75;149056.50;5005767;28;20265;-58
2023/12/11 10:34:41;;;;;;;4.50;0.83;;;;;;;11.73;80.03;149063.97;5014254;28;20186;-58
2023/12/11 10:37:34;;;;;;;6.10;0.77;;;;;;;11.64;80.62;149041.53;5013407;28;20205;-58
2023/12/11 10:40:36;;;;;;;4.17;0.70;;;;;;;11.75;79.87;149067.69;5012921;28;20206;-58
2023/12/11 10:43:28;;;;;;;2.87;0.80;;;;;;;11.62;81.11;149036.56;5012943;28;20224;-57
2023/12/11 10:46:21;;;;;;;3.20;1.13;;;;;;;11.57;82.44;149025.34;5009358;28;20818;-59
2023/12/11 10:49:13;;;;;;;2.97;0.70;;;;;;;11.73;79.25;149062.72;4985347;28;20217;-59
2023/12/11 10:52:06;;;;;;;2.70;0.70;;;;;;;11.65;81.68;149045.31;4988005;28;20234;-58
2023/12/11 10:54:57;;;;;;;5.87;1.03;;;;;;;11.78;79.42;149075.16;4998629;28;20705;-58
2023/12/11 10:57:50;;;;;;;5.57;0.93;;;;;;;11.82;79.43;149086.41;5003287;28;20290;-58
2023/12/11 11:00:45;;;;;;;3.20;0.60;;;;;;;11.91;79.25;149106.34;5004183;28;22193;-58
2023/12/11 11:03:39;;;;;;;5.47;0.80;;;;;;;11.97;79.65;149121.31;4999825;28;20265;-58
2023/12/11 11:06:36;;;;;;;6.43;1.23;;;;;;;11.80;80.30;149081.44;4983476;28;20229;-58
2023/12/11 11:09:11;;;;;;;5.27;0.73;;;;;;;11.73;79.73;149063.97;5005175;28;20230;-58
2023/12/11 11:11:45;;;;;;;5.53;0.70;;;;;;;11.74;80.63;149066.47;5004491;28;20245;-57
2023/12/11 11:14:43;;;;;;;2.73;0.90;;;;;;;11.75;80.29;149068.97;5006318;28;20225;-58
2023/12/11 11:17:09;;;;;;;5.47;0.70;;;;;;;11.78;79.41;149076.44;5005056;28;20238;-59
2023/12/11 11:19:37;;;;;;;8.83;1.10;;;;;;;11.81;79.67;149083.91;5005137;28;20720;-59
2023/12/11 11:22:20;;;;;;;6.13;1.13;;;;;;;11.74;80.13;149066.47;5007184;28;20226;-58
2023/12/11 11:24:47;;;;;;;4.17;0.90;;;;;;;11.74;81.80;149065.19;5004705;28;20240;-59
2023/12/11 11:27:47;;;;;;;2.83;0.80;;;;;;;11.92;79.66;149110.09;5006829;28;20223;-58
2023/12/11 11:30:51;;;;;;;3.63;0.83;;;;;;;12.10;80.17;149152.50;4943880;28;20315;-58
2023/12/11 11:33:19;;;;;;;2.87;0.97;;;;;;;12.07;78.71;149146.31;4932175;28;20703;-58
2023/12/11 11:35:54;;;;;;;3.60;0.67;;;;;;;11.85;80.23;149092.63;4989648;28;20235;-58